Time;durP1;ratioP1;P1;durP2;ratioP2;P2;SDS_P1;SDS_P2;PMS_P1;PMS_P2;Temp;Humidity;BMP_temperature;BMP_pressure;BME280_temperature;BME280_humidity;BME280_pressure;Samples;Min_cycle;Max_cycle;Signal;HPM_P1;HPM_P2
2023/03/20 00:00:18;;;;;;;44.25;30.40;;;8.70;99.90;;;;;;2701533;39;20524;31
2023/03/20 00:02:53;;;;;;;49.10;30.63;;;8.60;99.90;;;;;;2621819;47;20123;31
2023/03/20 00:05:30;;;;;;;44.28;30.70;;;8.70;99.90;;;;;;2602965;54;20030;31
2023/03/20 00:08:05;;;;;;;51.58;33.10;;;8.70;99.90;;;;;;2621574;47;20030;31
2023/03/20 00:10:42;;;;;;;47.15;31.15;;;8.70;99.90;;;;;;2602262;54;20757;31
2023/03/20 00:13:21;;;;;;;45.20;30.52;;;8.70;99.90;;;;;;2620849;47;20031;31
2023/03/20 00:16:04;;;;;;;50.83;32.70;;;8.60;99.90;;;;;;2621563;46;20045;31
2023/03/20 00:18:40;;;;;;;48.60;32.22;;;8.60;99.90;;;;;;2621564;47;20034;31
2023/03/20 00:21:18;;;;;;;53.38;32.38;;;8.70;99.90;;;;;;2603681;54;21015;31
2023/03/20 00:23:54;;;;;;;49.75;32.35;;;8.70;99.90;;;;;;2622495;46;20030;31
2023/03/20 00:26:33;;;;;;;43.83;28.98;;;8.70;99.90;;;;;;2603772;54;20026;31
2023/03/20 00:29:10;;;;;;;47.15;30.40;;;8.70;99.90;;;;;;2609649;46;20949;31
2023/03/20 00:31:50;;;;;;;46.63;30.23;;;8.80;99.90;;;;;;2603673;54;20038;31
2023/03/20 00:34:30;;;;;;;53.37;34.57;;;8.80;99.90;;;;;;2622218;46;20027;31
2023/03/20 00:37:11;;;;;;;56.20;33.50;;;8.80;99.90;;;;;;2603808;54;20112;31
2023/03/20 00:39:49;;;;;;;49.75;33.30;;;8.80;99.90;;;;;;2603678;54;20101;31
2023/03/20 00:42:24;;;;;;;52.60;33.00;;;8.80;99.90;;;;;;2603075;54;20049;31
2023/03/20 00:45:01;;;;;;;45.55;31.45;;;8.90;99.90;;;;;;2602960;54;21007;31
2023/03/20 00:47:44;;;;;;;48.50;31.75;;;8.90;99.90;;;;;;2602955;54;20034;31
2023/03/20 00:50:25;;;;;;;45.45;30.42;;;8.90;99.90;;;;;;2702311;39;20632;31
2023/03/20 00:53:03;;;;;;;40.13;28.27;;;8.90;99.90;;;;;;2606139;46;20123;31
2023/03/20 00:55:39;;;;;;;50.58;32.47;;;8.90;99.90;;;;;;2603868;54;20026;31
2023/03/20 00:58:18;;;;;;;44.00;31.13;;;9.00;99.90;;;;;;2603678;54;20123;31
2023/03/20 01:00:52;;;;;;;46.20;30.05;;;8.90;99.90;;;;;;2604002;54;20972;31
2023/03/20 01:03:34;;;;;;;45.07;32.30;;;9.00;99.90;;;;;;2622330;46;20038;31
2023/03/20 01:06:10;;;;;;;50.78;32.75;;;8.90;99.90;;;;;;2603839;54;20034;31
2023/03/20 01:08:47;;;;;;;48.17;33.35;;;9.00;99.90;;;;;;2773854;31;21521;31
2023/03/20 01:11:26;;;;;;;42.33;30.35;;;9.00;99.90;;;;;;2603584;54;20112;31
2023/03/20 01:14:02;;;;;;;39.30;27.20;;;9.00;99.90;;;;;;2603622;54;20805;31
2023/03/20 01:16:42;;;;;;;48.75;32.17;;;9.00;99.90;;;;;;2603609;54;20143;31
2023/03/20 01:19:22;;;;;;;41.45;28.73;;;9.00;99.90;;;;;;2603767;54;20922;31
2023/03/20 01:22:01;;;;;;;46.65;30.38;;;9.00;99.90;;;;;;2621943;46;20046;31
2023/03/20 01:24:37;;;;;;;45.10;28.30;;;9.00;99.90;;;;;;2603537;54;20033;31
2023/03/20 01:27:15;;;;;;;44.20;29.50;;;9.10;99.90;;;;;;2702401;39;21049;31
2023/03/20 01:29:51;;;;;;;35.80;27.70;;;9.10;99.90;;;;;;2622076;46;20033;31
2023/03/20 01:32:30;;;;;;;39.03;28.27;;;9.10;99.90;;;;;;2603411;54;20026;31
2023/03/20 01:35:15;;;;;;;42.42;27.70;;;9.10;99.90;;;;;;2603797;54;20031;31
2023/03/20 01:37:51;;;;;;;38.85;27.58;;;9.10;99.90;;;;;;2603718;54;20081;31
2023/03/20 01:40:32;;;;;;;38.00;27.13;;;9.10;99.90;;;;;;2603439;54;20033;31
2023/03/20 01:43:11;;;;;;;35.33;25.13;;;9.10;99.90;;;;;;2603545;54;20026;31
2023/03/20 01:45:50;;;;;;;36.70;25.67;;;9.10;99.90;;;;;;2603721;54;20027;31
2023/03/20 01:48:33;;;;;;;36.47;26.67;;;9.10;99.90;;;;;;2603832;54;20026;31
2023/03/20 01:51:15;;;;;;;34.20;25.45;;;9.10;99.90;;;;;;2603548;54;20762;31
2023/03/20 01:53:53;;;;;;;35.73;25.93;;;9.10;99.90;;;;;;2702031;39;20473;31
2023/03/20 01:56:29;;;;;;;33.55;25.65;;;9.20;99.90;;;;;;2603624;54;20284;31
2023/03/20 01:59:10;;;;;;;33.75;24.95;;;9.20;99.90;;;;;;2603611;54;20042;31
2023/03/20 02:01:47;;;;;;;29.50;23.08;;;9.20;99.90;;;;;;2621847;46;20764;31
2023/03/20 02:04:25;;;;;;;35.42;24.63;;;9.20;99.90;;;;;;2720944;39;20896;31
2023/03/20 02:07:13;;;;;;;34.35;24.95;;;9.30;99.90;;;;;;2621627;46;20855;31
2023/03/20 02:10:14;;;;;;;35.90;25.20;;;9.20;99.90;;;;;;2603514;54;20891;31
2023/03/20 02:13:13;;;;;;;36.85;25.95;;;9.30;99.90;;;;;;2603402;54;20056;31
2023/03/20 02:15:59;;;;;;;34.77;26.80;;;9.20;99.90;;;;;;2603327;54;20660;31
2023/03/20 02:18:56;;;;;;;35.42;26.60;;;9.30;99.90;;;;;;2603464;54;20135;31
2023/03/20 02:21:55;;;;;;;32.72;26.83;;;9.30;99.90;;;;;;2603602;54;20039;31
2023/03/20 02:25:05;;;;;;;34.58;27.48;;;9.30;99.90;;;;;;2603408;54;20155;31
2023/03/20 02:28:06;;;;;;;34.95;27.33;;;9.30;99.90;;;;;;2621919;46;20022;31
2023/03/20 02:31:05;;;;;;;39.85;29.90;;;9.30;99.90;;;;;;2603300;54;20040;31
2023/03/20 02:34:05;;;;;;;41.73;32.97;;;9.30;99.90;;;;;;2603363;54;20760;31
2023/03/20 02:36:54;;;;;;;37.70;29.63;;;9.30;99.90;;;;;;2603022;54;20258;31
2023/03/20 02:39:59;;;;;;;46.43;34.33;;;9.30;99.90;;;;;;2603288;54;20847;31
2023/03/20 02:42:35;;;;;;;42.67;33.30;;;9.30;99.90;;;;;;2603137;54;20038;31
2023/03/20 02:45:17;;;;;;;39.00;31.40;;;9.30;99.90;;;;;;2614889;46;20883;31
2023/03/20 02:47:57;;;;;;;39.42;32.20;;;9.40;99.90;;;;;;2603299;54;20833;31
2023/03/20 02:50:36;;;;;;;43.38;33.70;;;9.30;99.90;;;;;;2603351;54;20908;31
2023/03/20 02:53:18;;;;;;;40.75;31.65;;;9.30;99.90;;;;;;2603207;54;20766;31
2023/03/20 02:55:58;;;;;;;42.95;32.70;;;9.40;99.90;;;;;;2621727;46;20570;31
2023/03/20 02:58:35;;;;;;;43.57;32.80;;;9.40;99.90;;;;;;2603423;54;20027;31
2023/03/20 03:01:13;;;;;;;33.10;26.10;;;9.40;99.90;;;;;;2602586;54;20301;31
2023/03/20 03:03:51;;;;;;;41.50;31.40;;;9.40;99.90;;;;;;2603244;54;20036;31
2023/03/20 03:06:30;;;;;;;41.25;31.55;;;9.40;99.90;;;;;;2621557;46;20034;31
2023/03/20 03:09:08;;;;;;;41.15;32.25;;;9.40;99.90;;;;;;2701560;39;20508;31
2023/03/20 03:11:50;;;;;;;39.70;30.50;;;9.40;99.90;;;;;;2621693;46;21862;31
2023/03/20 03:14:35;;;;;;;35.20;27.80;;;9.40;99.90;;;;;;2621300;46;20030;31
2023/03/20 03:17:15;;;;;;;32.57;26.83;;;9.40;99.90;;;;;;2603225;54;20082;31
2023/03/20 03:19:51;;;;;;;33.13;27.40;;;9.50;99.90;;;;;;2621293;46;21817;31
2023/03/20 03:22:30;;;;;;;26.95;21.75;;;9.50;99.90;;;;;;2603315;54;20096;31
2023/03/20 03:25:08;;;;;;;36.15;27.95;;;9.50;99.90;;;;;;2603363;54;20056;31
2023/03/20 03:27:47;;;;;;;26.60;21.20;;;9.50;99.90;;;;;;2603375;54;20037;31
2023/03/20 03:30:26;;;;;;;35.08;27.85;;;9.50;99.90;;;;;;2603119;54;20038;31
2023/03/20 03:33:11;;;;;;;25.25;21.30;;;9.50;99.90;;;;;;2603141;54;20037;31
2023/03/20 03:35:47;;;;;;;28.98;22.60;;;9.50;99.90;;;;;;2603017;54;20026;31
2023/03/20 03:38:26;;;;;;;;;;;9.60;99.90;;;;;;2603547;54;20057;31
2023/03/20 03:41:09;;;;;;;32.20;23.65;;;9.60;99.90;;;;;;2603261;54;20802;31
2023/03/20 03:43:52;;;;;;;29.55;25.10;;;9.60;99.90;;;;;;2602995;54;20469;31
2023/03/20 03:46:32;;;;;;;32.40;26.10;;;9.60;99.90;;;;;;2602912;54;20031;31
2023/03/20 03:49:10;;;;;;;38.25;27.88;;;9.60;99.90;;;;;;2603273;54;20031;31
2023/03/20 03:51:51;;;;;;;37.67;28.67;;;9.70;99.90;;;;;;2603327;54;20089;31
2023/03/20 03:54:29;;;;;;;27.47;21.73;;;9.60;99.90;;;;;;2603660;54;20027;31
2023/03/20 03:57:36;;;;;;;28.40;24.45;;;9.60;99.90;;;;;;2603882;54;20673;31
2023/03/20 04:00:20;;;;;;;36.45;29.20;;;9.70;99.90;;;;;;2603713;54;20944;31
2023/03/20 04:02:56;;;;;;;33.63;25.80;;;9.70;99.90;;;;;;2603811;54;20874;31
2023/03/20 04:05:35;;;;;;;28.77;22.83;;;9.70;99.90;;;;;;2603963;54;20104;31
2023/03/20 04:08:15;;;;;;;30.08;24.55;;;9.70;99.90;;;;;;2604070;54;20828;31
2023/03/20 04:10:52;;;;;;;37.60;29.58;;;9.60;99.90;;;;;;2604005;54;20046;31
2023/03/20 04:13:28;;;;;;;;;;;9.60;99.90;;;;;;2604147;54;20871;31
2023/03/20 04:16:09;;;;;;;35.10;27.45;;;9.60;99.90;;;;;;2622176;46;19935;31
2023/03/20 04:18:45;;;;;;;32.72;25.35;;;9.60;99.90;;;;;;2603806;54;20986;31
2023/03/20 04:21:23;;;;;;;30.60;23.30;;;9.60;99.90;;;;;;2603829;54;20046;31
2023/03/20 04:23:58;;;;;;;34.70;26.70;;;9.60;99.90;;;;;;2603876;54;20026;31
2023/03/20 04:26:39;;;;;;;37.67;30.50;;;9.50;99.90;;;;;;2603041;54;20057;31
2023/03/20 04:29:17;;;;;;;33.27;25.73;;;9.50;99.90;;;;;;2603695;54;20031;31
2023/03/20 04:32:06;;;;;;;31.25;25.23;;;9.50;99.90;;;;;;2603783;54;20034;31
2023/03/20 04:34:58;;;;;;;30.40;24.10;;;9.50;99.90;;;;;;2622114;46;20026;31
2023/03/20 04:38:09;;;;;;;29.65;24.95;;;9.50;99.90;;;;;;2603810;54;20883;31
2023/03/20 04:40:46;;;;;;;34.03;26.00;;;9.50;99.90;;;;;;2603716;54;20116;31
2023/03/20 04:43:22;;;;;;;40.47;31.33;;;9.50;99.90;;;;;;2702418;39;20482;31
2023/03/20 04:45:58;;;;;;;33.97;27.33;;;9.50;99.90;;;;;;2603865;54;20027;31
2023/03/20 04:48:35;;;;;;;41.13;28.53;;;9.50;99.90;;;;;;2603687;54;20046;31
2023/03/20 04:51:14;;;;;;;27.77;22.60;;;9.50;99.90;;;;;;2603696;54;20136;31
2023/03/20 04:53:57;;;;;;;39.15;29.27;;;9.50;99.90;;;;;;2603798;54;20026;31
2023/03/20 04:56:32;;;;;;;31.40;25.27;;;9.40;99.90;;;;;;2603382;54;20909;31
2023/03/20 04:59:41;;;;;;;28.40;22.42;;;9.40;99.90;;;;;;2603518;54;20759;31
2023/03/20 05:02:17;;;;;;;31.40;25.45;;;9.40;99.90;;;;;;2603683;54;20687;31
2023/03/20 05:04:54;;;;;;;30.80;23.10;;;9.40;99.90;;;;;;2603689;54;20054;31
2023/03/20 05:07:36;;;;;;;39.30;30.63;;;9.40;99.90;;;;;;2603643;54;20782;31
2023/03/20 05:10:16;;;;;;;31.95;22.70;;;9.40;99.90;;;;;;2603719;54;20336;31
2023/03/20 05:13:00;;;;;;;38.50;28.57;;;9.40;99.90;;;;;;2603798;54;20026;31
2023/03/20 05:15:46;;;;;;;31.50;25.05;;;9.40;99.90;;;;;;2622073;46;20250;31
2023/03/20 05:18:55;;;;;;;28.47;21.60;;;9.40;99.90;;;;;;2603619;54;20026;31
2023/03/20 05:21:52;;;;;;;30.20;24.65;;;9.40;99.90;;;;;;2702088;39;21684;31
2023/03/20 05:25:05;;;;;;;24.45;19.85;;;9.40;99.90;;;;;;2603378;54;20026;31
2023/03/20 05:28:02;;;;;;;29.25;22.13;;;9.50;99.90;;;;;;2603563;54;20030;31
2023/03/20 05:30:49;;;;;;;28.70;22.38;;;9.50;99.90;;;;;;2603618;54;20588;31
2023/03/20 05:33:44;;;;;;;31.60;23.47;;;9.40;99.90;;;;;;2603898;54;21599;31
2023/03/20 05:36:25;;;;;;;34.35;25.73;;;9.50;99.90;;;;;;2622246;46;20029;31
2023/03/20 05:39:24;;;;;;;30.50;25.40;;;9.50;99.90;;;;;;2603423;54;20883;31
2023/03/20 05:42:15;;;;;;;33.92;27.00;;;9.50;99.90;;;;;;2603596;54;20245;31
2023/03/20 05:45:11;;;;;;;26.20;19.48;;;9.50;99.90;;;;;;2603736;54;20778;31
2023/03/20 05:48:13;;;;;;;28.52;22.50;;;9.60;99.90;;;;;;2621740;46;20895;31
2023/03/20 05:51:16;;;;;;;29.65;23.48;;;9.60;99.90;;;;;;2702030;39;20551;31
2023/03/20 05:54:35;;;;;;;28.98;21.67;;;9.60;99.90;;;;;;2603419;54;20083;31
2023/03/20 05:57:35;;;;;;;26.30;21.95;;;9.70;99.90;;;;;;2603754;54;20033;31
2023/03/20 06:04:07;;;;;;;26.23;22.38;;;9.90;99.90;;;;;;2603309;54;20845;31
2023/03/20 06:07:09;;;;;;;28.90;22.55;;;9.90;99.90;;;;;;2701886;39;20489;31
2023/03/20 06:09:48;;;;;;;27.93;24.17;;;10.00;99.90;;;;;;2603503;54;20026;31
2023/03/20 06:12:29;;;;;;;27.45;21.38;;;10.00;99.90;;;;;;2621738;46;20026;31
2023/03/20 06:15:15;;;;;;;28.67;22.40;;;10.00;99.90;;;;;;2702088;39;20544;31
2023/03/20 06:18:08;;;;;;;28.20;22.77;;;10.00;99.90;;;;;;2621920;46;20033;31
2023/03/20 06:20:45;;;;;;;30.10;23.80;;;10.00;99.90;;;;;;2621826;46;20018;31
2023/03/20 06:23:23;;;;;;;28.25;21.38;;;10.00;99.90;;;;;;2603430;54;20748;31
2023/03/20 06:25:59;;;;;;;29.65;23.55;;;10.00;99.90;;;;;;2603521;54;20026;31
2023/03/20 06:28:35;;;;;;;28.08;23.10;;;10.00;99.90;;;;;;2603331;54;20030;31
2023/03/20 06:31:17;;;;;;;27.75;23.00;;;10.10;99.90;;;;;;2603478;54;19935;31
2023/03/20 06:33:53;;;;;;;27.75;22.00;;;10.10;99.90;;;;;;2621748;46;20033;31
2023/03/20 06:36:31;;;;;;;31.17;24.23;;;10.10;99.90;;;;;;2603204;54;20031;31
2023/03/20 06:41:50;;;;;;;32.00;25.70;;;10.10;99.90;;;;;;2603339;54;20238;31
2023/03/20 06:44:32;;;;;;;29.70;23.63;;;10.10;99.90;;;;;;2602548;54;20031;31
2023/03/20 06:47:40;;;;;;;34.15;25.30;;;10.20;99.90;;;;;;2603224;54;21644;31
2023/03/20 06:50:17;;;;;;;27.75;23.20;;;10.20;99.90;;;;;;2603319;54;20029;31
2023/03/20 06:52:57;;;;;;;29.60;24.45;;;10.20;99.90;;;;;;2621668;46;20575;31
2023/03/20 06:55:53;;;;;;;24.65;19.45;;;10.20;99.90;;;;;;2603236;54;20033;31
2023/03/20 06:58:33;;;;;;;28.80;22.60;;;10.20;99.90;;;;;;2603187;54;20047;31
2023/03/20 07:01:13;;;;;;;31.27;26.05;;;10.20;99.90;;;;;;2621869;46;20027;31
2023/03/20 07:03:56;;;;;;;31.08;25.02;;;10.30;99.90;;;;;;2603255;54;20054;31
2023/03/20 07:06:44;;;;;;;32.72;28.02;;;10.20;99.90;;;;;;2603484;54;20782;31
2023/03/20 07:09:30;;;;;;;24.95;15.70;;;10.20;99.90;;;;;;2602348;54;20077;31
2023/03/20 07:12:08;;;;;;;28.15;24.27;;;10.40;99.90;;;;;;2621728;46;20026;31
2023/03/20 07:14:47;;;;;;;30.58;24.50;;;10.50;99.90;;;;;;2603107;54;20038;31
2023/03/20 07:17:27;;;;;;;27.27;21.63;;;10.50;99.90;;;;;;2602608;54;20019;31
2023/03/20 07:20:09;;;;;;;31.60;26.70;;;10.50;99.90;;;;;;2602716;54;20045;31
2023/03/20 07:22:45;;;;;;;23.07;20.57;;;10.50;99.90;;;;;;2603121;54;20745;31
2023/03/20 07:25:29;;;;;;;32.63;26.35;;;10.50;99.90;;;;;;2603207;54;20116;31
2023/03/20 07:28:18;;;;;;;31.70;26.05;;;10.60;99.90;;;;;;2603062;54;20049;31
2023/03/20 07:31:13;;;;;;;31.90;25.42;;;10.60;99.90;;;;;;2621468;46;20022;31
2023/03/20 07:33:57;;;;;;;35.00;25.77;;;10.60;99.90;;;;;;2603076;54;20900;31
2023/03/20 07:36:38;;;;;;;33.90;26.30;;;10.60;99.90;;;;;;2602446;54;20068;31
2023/03/20 07:39:23;;;;;;;29.10;24.10;;;10.60;99.90;;;;;;2602301;54;20023;31
2023/03/20 07:42:26;;;;;;;28.35;24.05;;;10.60;99.90;;;;;;2603199;54;20018;31
2023/03/20 07:45:12;;;;;;;31.98;25.63;;;10.70;99.90;;;;;;2605600;47;20684;31
2023/03/20 07:47:53;;;;;;;28.83;24.03;;;10.70;99.90;;;;;;2606965;47;20572;31
2023/03/20 07:50:39;;;;;;;26.35;22.45;;;10.70;99.90;;;;;;2603217;54;20085;31
2023/03/20 07:53:24;;;;;;;25.80;19.55;;;10.80;99.90;;;;;;2701019;39;21607;31
2023/03/20 07:56:03;;;;;;;27.45;20.95;;;10.80;99.90;;;;;;2602915;54;21649;31
2023/03/20 07:58:53;;;;;;;30.95;24.15;;;10.90;99.90;;;;;;2602293;54;20148;31
2023/03/20 08:01:33;;;;;;;28.55;22.25;;;10.90;99.90;;;;;;2603023;54;20902;31
2023/03/20 08:04:13;;;;;;;31.25;23.95;;;10.90;99.90;;;;;;2602474;54;20027;31
2023/03/20 08:06:48;;;;;;;26.40;22.80;;;11.00;99.90;;;;;;2603161;54;20026;31
2023/03/20 08:09:28;;;;;;;28.20;23.93;;;11.00;99.90;;;;;;2603190;54;20026;31
2023/03/20 08:12:06;;;;;;;25.13;21.48;;;11.00;99.90;;;;;;2602299;54;20027;31
2023/03/20 08:14:47;;;;;;;27.27;21.67;;;11.00;99.90;;;;;;2602922;54;20907;31
2023/03/20 08:17:21;;;;;;;28.75;22.25;;;11.00;99.90;;;;;;2602826;54;20026;31
2023/03/20 08:22:50;;;;;;;28.13;22.58;;;11.00;99.90;;;;;;2603002;54;20565;31
2023/03/20 08:25:33;;;;;;;33.70;25.45;;;11.00;99.90;;;;;;2602416;54;20030;31
2023/03/20 08:28:11;;;;;;;32.60;24.02;;;11.00;99.90;;;;;;2603110;54;19942;31
2023/03/20 08:30:52;;;;;;;30.85;23.42;;;11.00;99.90;;;;;;2602886;54;20565;31
2023/03/20 08:33:33;;;;;;;33.13;25.02;;;11.00;99.90;;;;;;2621375;47;20027;31
2023/03/20 08:36:18;;;;;;;32.67;25.05;;;11.00;99.90;;;;;;2602883;54;20033;31
2023/03/20 08:41:34;;;;;;;31.13;24.40;;;11.00;99.90;;;;;;2603276;54;20944;31
2023/03/20 08:44:11;;;;;;;29.50;22.70;;;11.00;99.90;;;;;;2603908;54;20026;31
2023/03/20 08:46:46;;;;;;;28.90;24.15;;;11.00;99.90;;;;;;2765131;31;20034;31
2023/03/20 08:49:23;;;;;;;34.75;25.38;;;11.00;99.90;;;;;;2603821;54;20037;31
2023/03/20 08:51:59;;;;;;;28.15;22.98;;;11.00;99.90;;;;;;2622215;46;20120;31
2023/03/20 08:54:48;;;;;;;25.33;22.30;;;11.00;99.90;;;;;;2603635;54;20030;31
2023/03/20 08:57:32;;;;;;;26.33;21.73;;;11.00;99.90;;;;;;2603624;54;20089;31
2023/03/20 09:00:14;;;;;;;30.50;22.30;;;11.10;99.90;;;;;;2603619;54;21718;31
2023/03/20 09:02:55;;;;;;;23.65;19.63;;;11.20;99.90;;;;;;2603940;54;20033;31
2023/03/20 09:05:30;;;;;;;25.07;20.37;;;11.20;99.90;;;;;;2720463;39;20552;31
2023/03/20 09:08:11;;;;;;;23.30;19.77;;;11.20;99.90;;;;;;2603554;54;21712;31
2023/03/20 09:10:47;;;;;;;26.50;20.38;;;11.20;99.90;;;;;;2621640;46;20927;31
2023/03/20 09:13:32;;;;;;;28.90;21.55;;;11.30;99.90;;;;;;2603601;54;20033;31
2023/03/20 09:16:09;;;;;;;59.80;25.42;;;11.30;99.90;;;;;;2622395;46;20589;31
2023/03/20 09:18:49;;;;;;;128.40;37.85;;;11.30;99.90;;;;;;2605796;46;20056;31
2023/03/20 09:21:28;;;;;;;59.08;23.88;;;11.40;99.90;;;;;;2603561;54;20030;31
2023/03/20 09:24:02;;;;;;;25.63;18.55;;;11.40;99.90;;;;;;2622144;46;20422;31
2023/03/20 09:26:39;;;;;;;26.15;19.10;;;11.40;99.90;;;;;;2701754;39;20567;31
2023/03/20 09:29:17;;;;;;;21.60;18.45;;;11.50;99.90;;;;;;2603277;54;20058;31
2023/03/20 09:31:55;;;;;;;23.80;19.70;;;11.50;99.90;;;;;;2701862;39;21617;31
2023/03/20 09:34:35;;;;;;;22.52;18.10;;;11.60;99.90;;;;;;2702010;39;20568;31
2023/03/20 09:37:13;;;;;;;22.00;18.17;;;11.50;99.90;;;;;;2621954;46;20031;31
2023/03/20 09:39:49;;;;;;;21.00;17.25;;;11.60;99.90;;;;;;2603460;54;20026;31
2023/03/20 09:42:38;;;;;;;23.50;18.55;;;11.60;99.90;;;;;;2602986;54;20576;31
2023/03/20 09:45:18;;;;;;;22.73;18.63;;;11.70;99.90;;;;;;2603593;54;20057;31
2023/03/20 09:48:00;;;;;;;23.85;17.92;;;11.80;99.90;;;;;;2701864;39;21720;31
2023/03/20 09:50:38;;;;;;;23.37;18.10;;;11.80;99.90;;;;;;2622299;46;20706;31
2023/03/20 09:53:18;;;;;;;23.30;17.87;;;11.90;99.90;;;;;;2621992;46;19946;31
2023/03/20 09:55:58;;;;;;;21.08;16.67;;;12.00;99.90;;;;;;2603620;54;20030;31
2023/03/20 09:58:35;;;;;;;21.48;17.45;;;12.10;99.90;;;;;;2701843;39;21625;31
2023/03/20 10:01:18;;;;;;;24.47;17.70;;;12.10;99.90;;;;;;2603626;54;20057;31
2023/03/20 10:04:00;;;;;;;18.75;14.98;;;12.20;99.90;;;;;;2702052;39;21641;31
2023/03/20 10:06:47;;;;;;;15.75;13.25;;;12.40;99.90;;;;;;2621518;46;20057;31
2023/03/20 10:09:24;;;;;;;16.63;13.67;;;12.60;99.90;;;;;;2603392;54;20764;31
2023/03/20 10:12:07;;;;;;;18.17;13.93;;;12.80;99.90;;;;;;2602739;54;20268;31
2023/03/20 10:14:49;;;;;;;23.17;12.85;;;12.90;99.90;;;;;;2622270;46;20569;31
2023/03/20 10:17:41;;;;;;;15.73;12.55;;;13.20;99.90;;;;;;2701685;39;20501;31
2023/03/20 10:20:25;;;;;;;17.05;12.55;;;13.30;99.90;;;;;;2603374;54;20915;31
2023/03/20 10:23:06;;;;;;;17.57;12.73;;;13.50;99.90;;;;;;2621641;46;20030;31
2023/03/20 10:25:49;;;;;;;15.20;12.27;;;13.70;99.90;;;;;;2603379;54;20880;31
2023/03/20 10:28:28;;;;;;;18.83;13.25;;;13.90;99.90;;;;;;2702005;39;20474;31
2023/03/20 10:31:11;;;;;;;15.70;12.23;;;14.00;99.90;;;;;;2603337;54;20750;31
2023/03/20 10:33:54;;;;;;;16.05;12.23;;;14.20;99.90;;;;;;2603512;54;19938;31
2023/03/20 10:36:33;;;;;;;16.07;11.43;;;14.30;99.90;;;;;;2701857;39;20509;31
2023/03/20 10:39:10;;;;;;;17.55;12.40;;;14.50;99.90;;;;;;2603108;54;20600;31
2023/03/20 10:41:51;;;;;;;15.75;11.70;;;14.70;99.90;;;;;;2603027;54;20026;31
2023/03/20 10:44:31;;;;;;;13.48;10.45;;;14.80;99.90;;;;;;2603374;54;20057;31
2023/03/20 10:47:08;;;;;;;11.90;9.97;;;14.80;99.90;;;;;;2603476;54;20038;31
2023/03/20 10:49:51;;;;;;;14.83;9.90;;;15.20;99.90;;;;;;2621574;46;20026;31
2023/03/20 10:52:31;;;;;;;12.10;9.37;;;15.40;99.90;;;;;;2621952;46;20026;31
2023/03/20 10:55:10;;;;;;;10.05;8.95;;;15.70;99.90;;;;;;2603427;54;20894;31
2023/03/20 10:57:58;;;;;;;10.10;8.60;;;15.90;99.90;;;;;;2772985;31;21522;31
2023/03/20 11:00:35;;;;;;;11.07;9.07;;;16.10;99.90;;;;;;2602617;54;20037;31
2023/03/20 11:03:19;;;;;;;12.10;8.73;;;16.10;99.90;;;;;;2621454;46;20033;31
2023/03/20 11:06:01;;;;;;;11.38;8.95;;;16.00;99.90;;;;;;2621719;46;20037;31
2023/03/20 11:08:55;;;;;;;9.98;8.65;;;16.00;99.90;;;;;;2603293;54;20030;31
2023/03/20 11:11:38;;;;;;;11.73;8.05;;;16.10;99.90;;;;;;2606899;46;20936;31
2023/03/20 11:14:21;;;;;;;12.15;9.00;;;16.30;99.90;;;;;;2603585;54;20048;31
2023/03/20 11:17:16;;;;;;;9.70;8.68;;;16.40;99.90;;;;;;2603139;54;20034;31
2023/03/20 11:20:01;;;;;;;10.52;7.60;;;16.50;99.90;;;;;;2603089;54;20881;31
2023/03/20 11:23:03;;;;;;;9.10;7.45;;;16.50;99.90;;;;;;2621701;46;20033;31
2023/03/20 11:26:02;;;;;;;10.27;8.33;;;16.50;99.90;;;;;;2603118;54;20076;31
2023/03/20 11:28:51;;;;;;;11.80;8.47;;;16.40;99.90;;;;;;2603222;54;20030;31
2023/03/20 11:31:40;;;;;;;9.38;7.45;;;16.30;99.90;;;;;;2602999;54;20026;31
2023/03/20 11:34:39;;;;;;;9.23;7.90;;;16.30;99.90;;;;;;2621436;46;20879;31
2023/03/20 11:37:33;;;;;;;9.93;9.00;;;16.20;99.90;;;;;;2603130;54;20030;31
2023/03/20 11:40:26;;;;;;;9.10;8.02;;;16.20;99.90;;;;;;2621793;46;20084;31
2023/03/20 11:43:07;;;;;;;10.40;8.50;;;16.20;99.90;;;;;;2603031;54;20112;31
2023/03/20 11:45:55;;;;;;;10.60;9.30;;;16.00;99.90;;;;;;2621315;47;20030;31
2023/03/20 11:48:41;;;;;;;10.18;9.18;;;16.00;99.90;;;;;;2621492;47;20023;31
2023/03/20 11:51:19;;;;;;;11.40;10.02;;;15.90;99.90;;;;;;2602969;54;20064;31
2023/03/20 11:54:04;;;;;;;12.70;9.98;;;15.90;99.90;;;;;;2602495;54;20056;31
2023/03/20 11:56:46;;;;;;;11.85;9.02;;;15.90;99.90;;;;;;2603048;54;20112;31
2023/03/20 11:59:26;;;;;;;11.35;10.15;;;15.90;99.90;;;;;;2602113;54;20942;31
2023/03/20 12:02:09;;;;;;;10.30;8.40;;;15.90;99.90;;;;;;2602106;54;20056;31
2023/03/20 12:04:48;;;;;;;10.32;8.05;;;16.00;99.90;;;;;;2603004;54;20767;31
2023/03/20 12:07:33;;;;;;;8.82;8.00;;;16.00;99.90;;;;;;2603141;54;20022;31
2023/03/20 12:10:22;;;;;;;7.78;6.85;;;16.00;99.90;;;;;;2621328;47;20026;31
2023/03/20 12:13:11;;;;;;;10.60;8.65;;;15.90;99.90;;;;;;2621567;47;20152;31
2023/03/20 12:16:04;;;;;;;10.30;9.30;;;15.90;99.90;;;;;;2603834;54;20022;31
2023/03/20 12:18:52;;;;;;;11.13;9.47;;;16.00;99.90;;;;;;2603070;54;20037;31
2023/03/20 12:21:44;;;;;;;12.68;10.77;;;16.10;99.90;;;;;;2603853;54;20246;31
2023/03/20 12:24:40;;;;;;;11.77;10.57;;;16.10;99.90;;;;;;2604162;54;20026;31
2023/03/20 12:27:39;;;;;;;12.35;11.15;;;16.10;99.90;;;;;;2603710;54;20136;31
2023/03/20 12:30:22;;;;;;;13.88;12.52;;;16.10;99.90;;;;;;2603788;54;20046;31
2023/03/20 12:33:07;;;;;;;16.33;14.68;;;16.00;99.90;;;;;;2603465;54;21631;31
2023/03/20 12:35:50;;;;;;;16.23;14.63;;;16.00;99.90;;;;;;2602997;54;20776;31
2023/03/20 12:45:04;;;;;;;16.35;14.70;;;15.60;99.90;;;;;;2603540;54;21460;31
2023/03/20 12:47:50;;;;;;;16.73;15.13;;;15.60;99.90;;;;;;2602854;54;20019;31
2023/03/20 12:50:43;;;;;;;17.20;15.40;;;15.50;99.90;;;;;;2613309;46;21206;31
2023/03/20 12:53:40;;;;;;;17.02;15.00;;;15.40;99.90;;;;;;2603041;54;20053;31
2023/03/20 12:59:15;;;;;;;14.95;13.65;;;15.40;99.90;;;;;;2701874;39;21340;31
2023/03/20 13:01:59;;;;;;;13.57;12.13;;;15.30;99.90;;;;;;2702440;39;21027;31
2023/03/20 13:08:04;;;;;;;11.40;8.68;;;15.30;99.90;;;;;;2603746;54;20023;31
2023/03/20 13:10:40;;;;;;;9.23;8.32;;;15.20;99.90;;;;;;2622225;46;20789;31
2023/03/20 13:13:23;;;;;;;12.52;9.77;;;15.10;99.90;;;;;;2603472;54;20851;31
2023/03/20 13:16:19;;;;;;;7.78;6.97;;;15.10;99.90;;;;;;2603517;54;20073;31
2023/03/20 13:19:10;;;;;;;7.28;6.57;;;15.00;99.90;;;;;;2603743;54;20027;31
2023/03/20 13:22:07;;;;;;;8.02;7.22;;;14.90;99.90;;;;;;2603772;54;20027;31
2023/03/20 13:24:48;;;;;;;7.20;6.50;;;14.80;99.90;;;;;;2622263;46;20036;31
2023/03/20 13:30:52;;;;;;;9.17;7.83;;;14.60;99.90;;;;;;2603719;54;20026;31
2023/03/20 13:33:37;;;;;;;10.70;9.40;;;14.50;99.90;;;;;;2603859;54;20580;31
2023/03/20 13:38:52;;;;;;;10.65;9.65;;;14.30;99.90;;;;;;2603190;54;20030;31
2023/03/20 13:41:32;;;;;;;11.73;10.73;;;14.30;99.90;;;;;;2602737;54;20863;31
2023/03/20 13:44:22;;;;;;;9.45;8.45;;;14.20;99.90;;;;;;2603540;54;20580;31
2023/03/20 13:47:36;;;;;;;11.73;10.25;;;14.20;99.90;;;;;;2603206;54;20049;31
2023/03/20 13:50:43;;;;;;;9.63;8.50;;;14.10;99.90;;;;;;2603453;54;20022;31
2023/03/20 13:53:31;;;;;;;8.63;7.82;;;14.10;99.90;;;;;;2603249;54;19935;31
2023/03/20 13:59:35;;;;;;;9.23;8.13;;;14.30;99.90;;;;;;2621637;46;20068;31
2023/03/20 14:02:41;;;;;;;7.55;6.75;;;14.40;99.90;;;;;;2603516;54;20026;31
2023/03/20 14:05:26;;;;;;;7.45;6.75;;;14.60;99.90;;;;;;2603160;54;20027;31
2023/03/20 14:08:24;;;;;;;9.73;7.45;;;14.70;99.90;;;;;;2603584;54;20846;31
2023/03/20 14:11:18;;;;;;;9.70;8.70;;;14.80;99.90;;;;;;2701998;39;21659;31
2023/03/20 14:13:59;;;;;;;9.20;7.50;;;14.90;99.90;;;;;;2603165;54;20915;31
2023/03/20 14:16:37;;;;;;;8.20;7.40;;;15.00;99.90;;;;;;2701675;39;20501;31
2023/03/20 14:19:22;;;;;;;9.98;8.55;;;15.00;99.90;;;;;;2603390;54;20022;31
2023/03/20 14:22:02;;;;;;;7.78;7.07;;;15.10;99.90;;;;;;2621799;46;20093;31
2023/03/20 14:24:42;;;;;;;9.90;8.93;;;15.10;99.90;;;;;;2603536;54;20144;31
2023/03/20 14:27:27;;;;;;;9.75;8.75;;;15.00;99.90;;;;;;2603303;54;20698;31
2023/03/20 14:30:33;;;;;;;11.18;9.02;;;15.00;99.90;;;;;;2603570;54;20026;31
2023/03/20 14:33:27;;;;;;;19.27;14.23;;;15.00;99.90;;;;;;2603048;54;20916;31
2023/03/20 14:36:19;;;;;;;15.77;13.20;;;14.80;99.90;;;;;;2603196;54;20031;31
2023/03/20 14:39:17;;;;;;;13.30;12.10;;;14.50;99.90;;;;;;2603052;54;20108;31
2023/03/20 14:42:08;;;;;;;16.20;11.10;;;14.30;99.90;;;;;;2618710;46;20055;31
2023/03/20 14:45:00;;;;;;;9.10;8.13;;;14.10;99.90;;;;;;2603328;54;20832;31